Time;durP1;ratioP1;P1;durP2;ratioP2;P2;SDS_P1;SDS_P2;PMS_P1;PMS_P2;Temp;Humidity;BMP_temperature;BMP_pressure;BME280_temperature;BME280_humidity;BME280_pressure;Samples;Min_cycle;Max_cycle;Signal;HPM_P1;HPM_P2
2021/07/11 00:00:28;;;;;;;38.45;21.60;;;;;;;;;;5073560;28;20020;-89
2021/07/11 00:02:54;;;;;;;41.90;21.60;;;;;;;;;;5054140;28;20027;-89
2021/07/11 00:05:20;;;;;;;45.80;24.08;;;;;;;;;;5062675;28;20040;-89
2021/07/11 00:07:45;;;;;;;54.85;24.58;;;;;;;;;;5068880;28;20124;-89
2021/07/11 00:10:12;;;;;;;46.67;24.35;;;;;;;;;;5056921;28;20444;-90
2021/07/11 00:12:38;;;;;;;58.95;27.67;;;;;;;;;;5072136;28;20048;-89
2021/07/11 00:15:07;;;;;;;55.08;26.27;;;;;;;;;;5069022;28;20085;-90
2021/07/11 00:17:33;;;;;;;56.13;26.80;;;;;;;;;;5051949;28;20468;-90
2021/07/11 00:19:59;;;;;;;53.50;25.95;;;;;;;;;;5053426;28;20074;-89
2021/07/11 00:22:24;;;;;;;55.65;28.65;;;;;;;;;;5073119;28;20472;-89
2021/07/11 00:24:50;;;;;;;54.35;26.67;;;;;;;;;;5065545;28;20027;-89
2021/07/11 00:27:16;;;;;;;53.85;29.48;;;;;;;;;;5055454;28;20078;-90
2021/07/11 00:29:41;;;;;;;53.88;28.10;;;;;;;;;;5054962;28;20032;-90
2021/07/11 00:32:06;;;;;;;55.55;25.10;;;;;;;;;;5055169;28;20032;-90
2021/07/11 00:34:31;;;;;;;52.05;26.52;;;;;;;;;;5072850;28;20024;-89
2021/07/11 00:36:57;;;;;;;53.53;26.17;;;;;;;;;;5057334;28;20488;-89
2021/07/11 00:39:22;;;;;;;56.20;25.75;;;;;;;;;;5071727;28;20052;-89
2021/07/11 00:41:47;;;;;;;41.20;23.65;;;;;;;;;;5070386;28;20039;-89
2021/07/11 00:44:12;;;;;;;43.58;23.80;;;;;;;;;;5071314;28;20099;-89
2021/07/11 00:46:38;;;;;;;42.53;22.40;;;;;;;;;;5071536;28;20047;-89
2021/07/11 00:49:04;;;;;;;38.72;20.15;;;;;;;;;;5071426;28;20020;-89
2021/07/11 00:51:29;;;;;;;35.10;21.15;;;;;;;;;;5062616;28;20021;-89
2021/07/11 00:53:54;;;;;;;37.95;19.83;;;;;;;;;;5066685;28;20103;-89
2021/07/11 00:56:20;;;;;;;34.40;19.27;;;;;;;;;;5056949;28;20028;-90
2021/07/11 00:58:45;;;;;;;31.10;19.10;;;;;;;;;;5064319;28;20032;-90
2021/07/11 01:01:12;;;;;;;29.27;17.05;;;;;;;;;;5067844;28;20337;-90
2021/07/11 01:03:39;;;;;;;29.77;15.88;;;;;;;;;;5051556;28;20071;-89
2021/07/11 01:06:05;;;;;;;27.27;15.40;;;;;;;;;;5069727;28;20104;-89
2021/07/11 01:08:42;;;;;;;22.85;13.93;;;;;;;;;;5071777;28;20106;-89
2021/07/11 01:11:09;;;;;;;25.20;13.60;;;;;;;;;;5071401;28;20039;-89
2021/07/11 01:13:35;;;;;;;28.50;14.57;;;;;;;;;;5066513;28;20086;-89
2021/07/11 01:16:03;;;;;;;30.65;13.95;;;;;;;;;;5051547;28;20021;-89
2021/07/11 01:18:28;;;;;;;34.92;14.55;;;;;;;;;;5071527;28;20023;-90
2021/07/11 01:21:02;;;;;;;19.30;13.15;;;;;;;;;;5075081;28;20107;-90
2021/07/11 01:23:31;;;;;;;27.38;14.15;;;;;;;;;;5072882;28;20029;-90
2021/07/11 01:25:57;;;;;;;27.05;13.40;;;;;;;;;;5056303;28;20502;-89
2021/07/11 01:28:23;;;;;;;24.58;13.13;;;;;;;;;;5056055;28;20033;-89
2021/07/11 01:30:48;;;;;;;33.35;12.30;;;;;;;;;;5055030;28;20028;-89
2021/07/11 01:33:15;;;;;;;20.15;12.27;;;;;;;;;;5068660;28;20095;-90
2021/07/11 01:35:40;;;;;;;21.85;11.00;;;;;;;;;;5065576;28;20024;-90
2021/07/11 01:38:06;;;;;;;20.30;11.00;;;;;;;;;;5064222;28;20025;-90
2021/07/11 01:40:32;;;;;;;23.25;11.93;;;;;;;;;;5072653;28;20020;-90
2021/07/11 01:42:58;;;;;;;20.48;12.15;;;;;;;;;;5065908;28;20032;-90
2021/07/11 01:45:24;;;;;;;24.88;11.50;;;;;;;;;;5069732;28;20028;-89
2021/07/11 01:47:49;;;;;;;21.27;11.02;;;;;;;;;;5055867;28;20021;-90
2021/07/11 01:50:15;;;;;;;21.15;11.38;;;;;;;;;;5059756;28;20049;-90
2021/07/11 01:52:40;;;;;;;23.10;11.93;;;;;;;;;;5069814;28;20032;-90
2021/07/11 01:55:07;;;;;;;20.67;11.57;;;;;;;;;;5054696;28;20024;-89
2021/07/11 01:57:33;;;;;;;21.92;12.75;;;;;;;;;;5054552;28;20032;-90
2021/07/11 01:59:59;;;;;;;16.55;9.85;;;;;;;;;;5063415;28;20047;-90
2021/07/11 02:02:24;;;;;;;23.42;11.68;;;;;;;;;;5073867;28;20024;-89
2021/07/11 02:04:49;;;;;;;21.30;12.50;;;;;;;;;;5055657;28;20021;-89
2021/07/11 02:07:14;;;;;;;22.88;12.88;;;;;;;;;;5055928;28;20021;-90
2021/07/11 02:09:39;;;;;;;27.23;13.70;;;;;;;;;;5058221;28;20021;-89
2021/07/11 02:12:05;;;;;;;24.50;12.88;;;;;;;;;;5055682;28;20017;-89
2021/07/11 02:14:31;;;;;;;26.40;12.43;;;;;;;;;;5054251;28;20078;-90
2021/07/11 02:16:59;;;;;;;24.50;12.57;;;;;;;;;;5063147;28;20074;-90
2021/07/11 02:19:25;;;;;;;26.42;13.95;;;;;;;;;;5073933;28;20111;-90
2021/07/11 02:21:52;;;;;;;25.33;12.93;;;;;;;;;;5072367;28;20059;-89
2021/07/11 02:24:18;;;;;;;18.33;12.40;;;;;;;;;;5063201;28;20017;-90
2021/07/11 02:26:44;;;;;;;22.08;12.93;;;;;;;;;;5072608;28;20031;-90
2021/07/11 02:29:10;;;;;;;26.52;13.27;;;;;;;;;;5061222;28;20029;-90
2021/07/11 02:31:39;;;;;;;21.75;13.77;;;;;;;;;;5074147;28;20064;-90
2021/07/11 02:34:05;;;;;;;25.75;14.13;;;;;;;;;;5068385;28;20021;-91
2021/07/11 02:36:30;;;;;;;22.60;14.02;;;;;;;;;;5065454;28;20023;-90
2021/07/11 02:39:00;;;;;;;32.08;14.25;;;;;;;;;;5073731;28;20028;-90
2021/07/11 02:41:26;;;;;;;37.67;13.65;;;;;;;;;;5063801;28;20041;-90
2021/07/11 02:43:52;;;;;;;23.50;13.38;;;;;;;;;;5055696;28;20025;-90
2021/07/11 02:46:20;;;;;;;24.55;12.35;;;;;;;;;;5066441;28;20032;-90
2021/07/11 02:48:45;;;;;;;25.70;14.00;;;;;;;;;;5054892;28;20021;-90
2021/07/11 02:51:16;;;;;;;30.73;14.10;;;;;;;;;;5074934;28;20479;-90
2021/07/11 02:53:42;;;;;;;30.95;13.93;;;;;;;;;;5073583;28;20035;-90
2021/07/11 02:56:08;;;;;;;23.05;14.10;;;;;;;;;;5058177;28;20032;-90
2021/07/11 02:58:34;;;;;;;24.90;13.50;;;;;;;;;;5054842;28;20024;-90
2021/07/11 03:01:00;;;;;;;21.23;13.50;;;;;;;;;;5054834;28;20027;-90
2021/07/11 03:03:26;;;;;;;29.40;13.73;;;;;;;;;;5054662;28;20027;-90
2021/07/11 03:05:53;;;;;;;23.13;13.00;;;;;;;;;;5087127;28;20043;-89
2021/07/11 03:08:18;;;;;;;23.67;13.98;;;;;;;;;;5053120;28;20063;-90
2021/07/11 03:10:44;;;;;;;22.33;12.30;;;;;;;;;;5053453;28;20371;-90
2021/07/11 03:13:09;;;;;;;24.58;13.43;;;;;;;;;;5053225;28;20039;-89
2021/07/11 03:15:34;;;;;;;27.52;12.45;;;;;;;;;;5053042;28;20017;-89
2021/07/11 03:18:00;;;;;;;27.30;13.68;;;;;;;;;;5054391;28;20013;-89
2021/07/11 03:20:26;;;;;;;25.00;12.95;;;;;;;;;;5052983;28;20460;-90
2021/07/11 03:22:52;;;;;;;21.60;12.65;;;;;;;;;;5053262;28;20036;-90
2021/07/11 03:25:18;;;;;;;21.27;12.07;;;;;;;;;;5053143;28;20029;-89
2021/07/11 03:27:43;;;;;;;22.50;11.20;;;;;;;;;;5052823;28;20040;-90
2021/07/11 03:30:12;;;;;;;20.27;10.93;;;;;;;;;;5086444;28;20013;-88
2021/07/11 03:32:48;;;;;;;28.02;13.48;;;;;;;;;;5086708;28;20115;-90
2021/07/11 03:35:14;;;;;;;28.10;11.70;;;;;;;;;;5052928;28;20108;-90
2021/07/11 03:37:41;;;;;;;18.55;12.38;;;;;;;;;;5052873;28;20055;-90
2021/07/11 03:40:07;;;;;;;32.65;10.52;;;;;;;;;;5053580;28;20043;-89
2021/07/11 03:42:35;;;;;;;21.00;10.50;;;;;;;;;;5086196;28;20036;-90
2021/07/11 03:45:00;;;;;;;17.70;9.70;;;;;;;;;;5052503;28;20115;-89
2021/07/11 03:47:28;;;;;;;17.20;9.75;;;;;;;;;;5051646;28;20107;-90
2021/07/11 03:49:54;;;;;;;15.32;10.10;;;;;;;;;;5052397;28;20033;-90
2021/07/11 03:52:21;;;;;;;16.23;10.00;;;;;;;;;;5052284;28;20518;-89
2021/07/11 03:54:46;;;;;;;25.27;10.13;;;;;;;;;;5052716;28;20021;-90
2021/07/11 03:57:12;;;;;;;27.52;10.93;;;;;;;;;;5086080;28;20019;-90
2021/07/11 03:59:38;;;;;;;14.73;9.70;;;;;;;;;;5052371;28;20048;-90
2021/07/11 04:02:05;;;;;;;20.33;10.23;;;;;;;;;;5052477;28;20021;-90
2021/07/11 04:04:31;;;;;;;22.80;9.57;;;;;;;;;;5052118;28;20103;-90
2021/07/11 04:06:56;;;;;;;17.90;9.48;;;;;;;;;;5052591;28;20476;-90
2021/07/11 04:09:22;;;;;;;22.33;10.23;;;;;;;;;;5052501;28;20021;-90
2021/07/11 04:11:47;;;;;;;13.20;8.40;;;;;;;;;;5038543;28;20115;-90
2021/07/11 04:14:16;;;;;;;16.27;9.75;;;;;;;;;;5052087;28;20388;-90
2021/07/11 04:16:43;;;;;;;17.95;9.73;;;;;;;;;;5052861;28;20009;-90
2021/07/11 04:19:08;;;;;;;21.42;10.48;;;;;;;;;;5051911;28;20021;-91
2021/07/11 04:21:33;;;;;;;18.67;11.02;;;;;;;;;;5085662;28;20025;-89
2021/07/11 04:23:59;;;;;;;19.88;13.27;;;;;;;;;;5053478;28;20356;-90
2021/07/11 04:26:25;;;;;;;14.70;10.27;;;;;;;;;;5051999;28;20020;-90
2021/07/11 04:28:52;;;;;;;23.60;11.70;;;;;;;;;;5085701;28;20045;-90
2021/07/11 04:31:17;;;;;;;20.60;12.13;;;;;;;;;;5053498;28;20029;-89
2021/07/11 04:33:44;;;;;;;20.63;13.52;;;;;;;;;;5053257;28;20070;-90
2021/07/11 04:36:10;;;;;;;19.90;11.98;;;;;;;;;;5053389;28;20025;-90
2021/07/11 04:38:35;;;;;;;23.50;13.27;;;;;;;;;;5052077;28;20013;-89
2021/07/11 04:41:02;;;;;;;30.30;15.32;;;;;;;;;;5051844;28;20021;-89
2021/07/11 04:43:27;;;;;;;46.70;15.95;;;;;;;;;;5051925;28;20045;-90
2021/07/11 04:45:52;;;;;;;47.53;14.77;;;;;;;;;;5084703;28;20071;-90
2021/07/11 04:48:17;;;;;;;30.50;12.68;;;;;;;;;;5052128;28;20029;-90
2021/07/11 04:50:44;;;;;;;27.92;12.63;;;;;;;;;;5052062;28;20050;-90
2021/07/11 04:53:12;;;;;;;36.78;13.80;;;;;;;;;;5055973;28;20012;-90
2021/07/11 04:55:37;;;;;;;27.02;13.27;;;;;;;;;;5055879;28;20021;-90
2021/07/11 04:58:02;;;;;;;50.00;14.63;;;;;;;;;;5089693;28;20024;-90
2021/07/11 05:00:27;;;;;;;58.47;14.95;;;;;;;;;;5089683;28;20353;-90
2021/07/11 05:02:52;;;;;;;47.85;14.73;;;;;;;;;;5089581;28;20091;-90
2021/07/11 05:05:18;;;;;;;38.83;14.98;;;;;;;;;;5057034;28;20078;-90
2021/07/11 05:07:43;;;;;;;45.25;15.27;;;;;;;;;;5055655;28;20025;-89
2021/07/11 05:10:09;;;;;;;25.67;15.73;;;;;;;;;;5055734;28;20021;-90
2021/07/11 05:12:34;;;;;;;27.63;16.27;;;;;;;;;;5089297;28;20025;-90
2021/07/11 05:15:00;;;;;;;26.92;16.15;;;;;;;;;;5055909;28;20156;-90
2021/07/11 05:17:25;;;;;;;26.15;15.40;;;;;;;;;;5055777;28;20377;-90
2021/07/11 05:19:50;;;;;;;30.83;15.02;;;;;;;;;;5056169;28;20453;-90
2021/07/11 05:22:16;;;;;;;26.10;14.77;;;;;;;;;;5055608;28;20389;-90
2021/07/11 05:24:41;;;;;;;28.38;15.68;;;;;;;;;;5055412;28;20035;-89
2021/07/11 05:27:06;;;;;;;25.45;16.27;;;;;;;;;;5089025;28;20025;-90
2021/07/11 05:29:31;;;;;;;28.30;15.77;;;;;;;;;;5056630;28;20078;-90
2021/07/11 05:31:57;;;;;;;28.65;16.65;;;;;;;;;;5088810;28;20028;-90
2021/07/11 05:34:22;;;;;;;28.15;15.60;;;;;;;;;;5056549;28;20036;-90
2021/07/11 05:36:48;;;;;;;29.83;15.63;;;;;;;;;;5054594;28;20017;-90
2021/07/11 05:39:13;;;;;;;26.80;15.02;;;;;;;;;;5085396;28;20418;-89
2021/07/11 05:41:38;;;;;;;24.40;15.02;;;;;;;;;;5055014;28;20024;-90
2021/07/11 05:44:04;;;;;;;24.23;15.45;;;;;;;;;;5054700;28;20033;-90
2021/07/11 05:46:29;;;;;;;29.73;15.63;;;;;;;;;;5054913;28;20448;-90
2021/07/11 05:48:55;;;;;;;28.13;16.02;;;;;;;;;;5087056;28;20472;-89
2021/07/11 05:51:20;;;;;;;28.40;16.23;;;;;;;;;;5053249;28;20020;-89
2021/07/11 05:53:45;;;;;;;29.73;15.45;;;;;;;;;;5054649;28;20476;-90
2021/07/11 05:56:11;;;;;;;31.88;15.80;;;;;;;;;;5054835;28;20021;-90
2021/07/11 05:58:36;;;;;;;32.28;16.77;;;;;;;;;;5054836;28;20021;-89
2021/07/11 06:01:01;;;;;;;36.05;16.38;;;;;;;;;;5086827;28;20021;-89
2021/07/11 06:03:26;;;;;;;33.30;16.88;;;;;;;;;;5086774;28;20364;-89
2021/07/11 06:05:52;;;;;;;30.00;16.23;;;;;;;;;;5086859;28;20544;-90
2021/07/11 06:08:17;;;;;;;30.73;17.23;;;;;;;;;;5052492;28;20104;-89
2021/07/11 06:10:42;;;;;;;30.48;17.10;;;;;;;;;;5053876;28;20025;-90
2021/07/11 06:13:07;;;;;;;32.08;18.02;;;;;;;;;;5052895;28;20111;-90
2021/07/11 06:15:32;;;;;;;36.92;19.35;;;;;;;;;;5085982;28;20056;-89
2021/07/11 06:17:58;;;;;;;31.83;17.42;;;;;;;;;;5086763;28;20425;-90
2021/07/11 06:20:23;;;;;;;29.40;16.52;;;;;;;;;;5086837;28;20067;-90
2021/07/11 06:22:48;;;;;;;34.72;17.02;;;;;;;;;;5054407;28;20447;-90
2021/07/11 06:25:14;;;;;;;37.55;18.80;;;;;;;;;;5054226;28;20032;-90
2021/07/11 06:27:43;;;;;;;32.97;16.55;;;;;;;;;;5053171;28;20349;-90
2021/07/11 06:30:10;;;;;;;34.40;18.05;;;;;;;;;;5054392;28;20441;-90
2021/07/11 06:32:39;;;;;;;30.63;17.52;;;;;;;;;;5052702;28;20021;-89
2021/07/11 06:35:06;;;;;;;29.50;16.20;;;;;;;;;;5052732;28;20055;-90
2021/07/11 06:37:31;;;;;;;34.33;16.75;;;;;;;;;;5086010;28;20431;-90
2021/07/11 06:39:56;;;;;;;34.20;18.00;;;;;;;;;;5052604;28;20056;-90
2021/07/11 06:42:21;;;;;;;35.03;16.67;;;;;;;;;;5053866;28;20019;-90
2021/07/11 06:44:47;;;;;;;31.25;17.02;;;;;;;;;;5014339;28;1106695;-90
2021/07/11 06:47:12;;;;;;;29.20;15.50;;;;;;;;;;5087309;28;20021;-90
2021/07/11 06:49:37;;;;;;;28.90;15.02;;;;;;;;;;5055025;28;20025;-90
2021/07/11 06:52:03;;;;;;;29.23;16.20;;;;;;;;;;5087097;28;20388;-90
2021/07/11 06:54:28;;;;;;;31.33;16.00;;;;;;;;;;5087067;28;20048;-90
2021/07/11 06:56:53;;;;;;;28.88;15.77;;;;;;;;;;5087229;28;20021;-90
2021/07/11 06:59:18;;;;;;;33.85;15.70;;;;;;;;;;5054718;28;20012;-90
2021/07/11 07:01:44;;;;;;;31.25;15.38;;;;;;;;;;5053587;28;20013;-89
2021/07/11 07:04:09;;;;;;;26.85;12.82;;;;;;;;;;5054055;28;20013;-90
2021/07/11 07:06:34;;;;;;;22.50;12.50;;;;;;;;;;5054252;28;20078;-89
2021/07/11 07:08:59;;;;;;;23.52;12.27;;;;;;;;;;5044414;28;20465;-90
2021/07/11 07:11:24;;;;;;;24.77;12.73;;;;;;;;;;5052917;28;20125;-89
2021/07/11 07:13:50;;;;;;;22.63;12.98;;;;;;;;;;5053279;28;20070;-89
2021/07/11 07:16:15;;;;;;;20.08;12.52;;;;;;;;;;5085966;28;20028;-90
2021/07/11 07:18:40;;;;;;;24.73;12.20;;;;;;;;;;5053094;28;20021;-90
2021/07/11 07:21:05;;;;;;;20.63;10.55;;;;;;;;;;5053365;28;20039;-90
2021/07/11 07:23:31;;;;;;;23.60;10.90;;;;;;;;;;5086641;28;20048;-89
2021/07/11 07:25:56;;;;;;;21.58;11.02;;;;;;;;;;5053325;28;20450;-90
2021/07/11 07:28:21;;;;;;;19.98;11.85;;;;;;;;;;5052969;28;20021;-90
2021/07/11 07:30:46;;;;;;;20.08;11.50;;;;;;;;;;5053263;28;20100;-90
2021/07/11 07:33:12;;;;;;;18.02;10.73;;;;;;;;;;5052673;28;20056;-89
2021/07/11 07:35:37;;;;;;;25.08;11.90;;;;;;;;;;5052843;28;20578;-90
2021/07/11 07:38:02;;;;;;;21.70;11.48;;;;;;;;;;5053812;28;20020;-90
2021/07/11 07:40:27;;;;;;;17.23;9.85;;;;;;;;;;5052840;28;20017;-90
2021/07/11 07:42:53;;;;;;;17.27;10.40;;;;;;;;;;5052647;28;20021;-90
2021/07/11 07:45:18;;;;;;;20.00;10.20;;;;;;;;;;5053419;28;20063;-89
2021/07/11 07:47:43;;;;;;;21.80;12.18;;;;;;;;;;5086003;28;20048;-90
2021/07/11 07:50:10;;;;;;;23.35;10.57;;;;;;;;;;5052466;28;20035;-90
2021/07/11 07:52:35;;;;;;;20.63;11.20;;;;;;;;;;5085947;28;20013;-90
2021/07/11 07:55:00;;;;;;;19.88;10.52;;;;;;;;;;5086077;28;20035;-90
2021/07/11 07:57:26;;;;;;;19.63;11.45;;;;;;;;;;5053715;28;20087;-91
2021/07/11 07:59:51;;;;;;;16.90;9.35;;;;;;;;;;5086204;28;20032;-89
2021/07/11 08:02:17;;;;;;;17.17;10.48;;;;;;;;;;5052407;28;20025;-90
2021/07/11 08:04:42;;;;;;;17.90;11.18;;;;;;;;;;5085983;28;20021;-90
2021/07/11 08:07:08;;;;;;;24.10;12.35;;;;;;;;;;5077103;28;20037;-89
2021/07/11 08:09:33;;;;;;;21.23;12.52;;;;;;;;;;5047826;28;20021;-90
2021/07/11 08:11:58;;;;;;;26.75;13.35;;;;;;;;;;5053484;28;20457;-90
2021/07/11 08:14:23;;;;;;;21.10;12.93;;;;;;;;;;5052245;28;20025;-90
2021/07/11 08:16:48;;;;;;;20.98;13.10;;;;;;;;;;5051851;28;20021;-90
2021/07/11 08:19:14;;;;;;;21.40;12.77;;;;;;;;;;5052206;28;20028;-90
2021/07/11 08:21:39;;;;;;;17.98;10.27;;;;;;;;;;5082987;28;20460;-89
2021/07/11 08:24:04;;;;;;;17.65;10.13;;;;;;;;;;5051939;28;20032;-90
2021/07/11 08:26:31;;;;;;;14.82;10.05;;;;;;;;;;5085124;28;20054;-90
2021/07/11 08:28:57;;;;;;;19.80;10.50;;;;;;;;;;5051863;28;20087;-90
2021/07/11 08:31:22;;;;;;;13.30;8.40;;;;;;;;;;5051943;28;20427;-90
2021/07/11 08:33:47;;;;;;;19.55;10.18;;;;;;;;;;5051573;28;20070;-90
2021/07/11 08:36:12;;;;;;;18.40;10.57;;;;;;;;;;5084792;28;20476;-90
2021/07/11 08:38:38;;;;;;;16.80;9.43;;;;;;;;;;5050436;28;20128;-90
2021/07/11 08:41:03;;;;;;;17.02;9.95;;;;;;;;;;5051427;28;20048;-90
2021/07/11 08:43:28;;;;;;;18.00;11.55;;;;;;;;;;5051642;28;20056;-90
2021/07/11 08:45:54;;;;;;;15.18;9.55;;;;;;;;;;5085369;28;20029;-90
2021/07/11 08:48:19;;;;;;;17.15;9.63;;;;;;;;;;5051913;28;20097;-90
2021/07/11 08:50:44;;;;;;;11.73;8.75;;;;;;;;;;5052374;28;20029;-90
2021/07/11 08:53:12;;;;;;;16.52;9.90;;;;;;;;;;5050919;28;20025;-90
2021/07/11 08:55:37;;;;;;;17.35;9.63;;;;;;;;;;5051917;28;20033;-90
2021/07/11 08:58:02;;;;;;;14.85;10.35;;;;;;;;;;5051662;28;20028;-90
2021/07/11 09:00:29;;;;;;;13.43;9.98;;;;;;;;;;5051324;28;20112;-90
2021/07/11 09:02:55;;;;;;;12.73;9.95;;;;;;;;;;5053068;28;20380;-90
2021/07/11 09:05:24;;;;;;;16.63;8.13;;;;;;;;;;5051524;28;20464;-90
2021/07/11 09:07:56;;;;;;;11.80;7.88;;;;;;;;;;5051499;28;20025;-90
2021/07/11 09:10:21;;;;;;;;;;;;;;;;;;5052065;28;20025;-89
2021/07/11 09:12:52;;;;;;;13.73;9.55;;;;;;;;;;5052388;28;19962;-89
2021/07/11 09:15:27;;;;;;;13.45;8.07;;;;;;;;;;5051342;28;20115;-90
2021/07/11 09:17:53;;;;;;;15.13;6.88;;;;;;;;;;5051554;28;20111;-89
2021/07/11 09:20:18;;;;;;;8.93;5.97;;;;;;;;;;5051432;28;20021;-89
2021/07/11 09:22:43;;;;;;;9.63;6.03;;;;;;;;;;5052867;28;20025;-90
2021/07/11 09:25:12;;;;;;;8.60;5.70;;;;;;;;;;5051450;28;20025;-90
2021/07/11 09:27:40;;;;;;;8.02;6.05;;;;;;;;;;5052746;28;20461;-89
2021/07/11 09:30:06;;;;;;;6.55;4.75;;;;;;;;;;5047835;28;20159;-90
2021/07/11 09:32:33;;;;;;;7.72;5.05;;;;;;;;;;5051142;28;20052;-90
2021/07/11 09:35:25;;;;;;;7.03;5.35;;;;;;;;;;5052317;28;20025;-90
2021/07/11 09:37:54;;;;;;;7.45;5.68;;;;;;;;;;5050491;28;20032;-90
2021/07/11 09:40:21;;;;;;;10.75;5.63;;;;;;;;;;5054744;28;20028;-90
2021/07/11 09:42:47;;;;;;;12.43;7.13;;;;;;;;;;5055921;28;20016;-90
2021/07/11 09:45:20;;;;;;;7.15;5.03;;;;;;;;;;5054672;28;20029;-90
2021/07/11 09:47:46;;;;;;;13.93;5.85;;;;;;;;;;5044369;28;20365;-90
2021/07/11 09:50:15;;;;;;;8.90;5.38;;;;;;;;;;5055926;28;20032;-88
2021/07/11 09:52:41;;;;;;;9.55;5.45;;;;;;;;;;5054666;28;20369;-90
2021/07/11 09:55:06;;;;;;;7.60;5.22;;;;;;;;;;5056015;28;20025;-91
2021/07/11 09:57:33;;;;;;;9.60;5.82;;;;;;;;;;5054613;28;20027;-90
2021/07/11 09:59:59;;;;;;;7.85;5.88;;;;;;;;;;5054669;28;20029;-90
2021/07/11 10:02:24;;;;;;;10.27;6.72;;;;;;;;;;5055564;28;20048;-90
2021/07/11 10:04:49;;;;;;;8.98;6.05;;;;;;;;;;5054370;28;20017;-90
2021/07/11 10:07:15;;;;;;;11.27;7.22;;;;;;;;;;5054006;28;20032;-90
2021/07/11 10:09:40;;;;;;;10.13;6.82;;;;;;;;;;5054310;28;20460;-90
2021/07/11 10:12:05;;;;;;;12.95;6.78;;;;;;;;;;5054881;28;20167;-90
2021/07/11 10:14:30;;;;;;;8.38;5.85;;;;;;;;;;5054025;28;20147;-90
2021/07/11 10:17:01;;;;;;;10.85;6.70;;;;;;;;;;5054321;28;20016;-90
2021/07/11 10:19:27;;;;;;;10.45;7.57;;;;;;;;;;5055579;28;20053;-89
2021/07/11 10:21:53;;;;;;;9.52;7.55;;;;;;;;;;5053985;28;20040;-90
2021/07/11 10:24:19;;;;;;;12.20;7.70;;;;;;;;;;5054200;28;20083;-90
2021/07/11 10:26:44;;;;;;;10.65;6.93;;;;;;;;;;5053709;28;20052;-91
2021/07/11 10:29:14;;;;;;;12.20;7.32;;;;;;;;;;5054181;28;20496;-91
2021/07/11 10:31:44;;;;;;;11.18;7.50;;;;;;;;;;5053849;28;20025;-90
2021/07/11 10:34:09;;;;;;;10.98;7.45;;;;;;;;;;5054060;28;20479;-90
2021/07/11 10:36:39;;;;;;;10.95;7.60;;;;;;;;;;5053749;28;20017;-90
2021/07/11 10:39:04;;;;;;;10.70;7.75;;;;;;;;;;5052118;28;20468;-90
2021/07/11 10:41:31;;;;;;;10.32;7.75;;;;;;;;;;5053972;28;20107;-90
2021/07/11 10:43:59;;;;;;;7.95;6.28;;;;;;;;;;5053601;28;20017;-90
2021/07/11 10:46:31;;;;;;;10.35;7.13;;;;;;;;;;5053824;28;20044;-90
2021/07/11 10:48:56;;;;;;;8.55;6.50;;;;;;;;;;5053269;28;20021;-90
2021/07/11 10:51:21;;;;;;;11.88;6.95;;;;;;;;;;5053036;28;20035;-90
2021/07/11 10:53:46;;;;;;;20.63;7.40;;;;;;;;;;5054806;28;20491;-91
2021/07/11 10:56:19;;;;;;;11.93;7.45;;;;;;;;;;5053540;28;20021;-90
2021/07/11 10:58:47;;;;;;;10.43;7.00;;;;;;;;;;5054537;28;20071;-91
2021/07/11 11:01:17;;;;;;;12.02;7.57;;;;;;;;;;5053351;28;20381;-90
2021/07/11 11:03:47;;;;;;;9.75;6.28;;;;;;;;;;5053425;28;20017;-91
2021/07/11 11:06:14;;;;;;;10.25;5.90;;;;;;;;;;5053306;28;20013;-90
2021/07/11 11:08:41;;;;;;;8.77;5.75;;;;;;;;;;5053323;28;20019;-90
2021/07/11 11:11:07;;;;;;;7.22;5.30;;;;;;;;;;5054032;28;20453;-90
2021/07/11 11:13:32;;;;;;;8.40;4.97;;;;;;;;;;5052568;28;20017;-91
2021/07/11 11:16:02;;;;;;;7.35;5.20;;;;;;;;;;5053255;28;20040;-91
2021/07/11 11:18:30;;;;;;;7.57;4.47;;;;;;;;;;5053089;28;20009;-91
2021/07/11 11:21:05;;;;;;;9.30;5.03;;;;;;;;;;5053038;28;20024;-90
2021/07/11 11:23:50;;;;;;;6.75;4.70;;;;;;;;;;5052854;28;20009;-90
2021/07/11 11:26:18;;;;;;;7.68;4.80;;;;;;;;;;5052604;28;20033;-90
2021/07/11 11:28:43;;;;;;;6.90;4.75;;;;;;;;;;5052880;28;20093;-91
2021/07/11 11:31:11;;;;;;;9.88;4.82;;;;;;;;;;5052585;28;20108;-90
2021/07/11 11:33:55;;;;;;;6.95;4.43;;;;;;;;;;5052744;28;20380;-90
2021/07/11 11:36:25;;;;;;;5.20;3.97;;;;;;;;;;5052478;28;20430;-90
2021/07/11 11:38:50;;;;;;;6.22;3.65;;;;;;;;;;5052458;28;20357;-90
2021/07/11 11:41:17;;;;;;;5.22;3.92;;;;;;;;;;5052699;28;20028;-90
2021/07/11 11:43:43;;;;;;;6.40;3.72;;;;;;;;;;5053686;28;20039;-90
2021/07/11 11:46:08;;;;;;;7.45;3.80;;;;;;;;;;5052549;28;20029;-89
2021/07/11 11:48:34;;;;;;;6.07;3.35;;;;;;;;;;5053601;28;20017;-90
2021/07/11 11:51:03;;;;;;;5.30;3.90;;;;;;;;;;5052634;28;20017;-91
2021/07/11 11:53:29;;;;;;;6.10;4.10;;;;;;;;;;5052647;28;20525;-90
2021/07/11 11:55:55;;;;;;;7.25;4.07;;;;;;;;;;5052116;28;20112;-90
2021/07/11 11:58:30;;;;;;;5.53;4.10;;;;;;;;;;5052386;28;20019;-91
2021/07/11 12:01:03;;;;;;;5.30;3.58;;;;;;;;;;5053147;28;20044;-90
2021/07/11 12:03:28;;;;;;;6.50;3.00;;;;;;;;;;5052414;28;20109;-90
2021/07/11 12:05:53;;;;;;;7.78;3.58;;;;;;;;;;5052026;28;20433;-90
2021/07/11 12:08:19;;;;;;;6.70;3.28;;;;;;;;;;5051803;28;20025;-90
2021/07/11 12:10:45;;;;;;;4.57;3.13;;;;;;;;;;5052224;28;20021;-89
2021/07/11 12:13:10;;;;;;;8.55;3.35;;;;;;;;;;5053222;28;20084;-90
2021/07/11 12:15:36;;;;;;;6.43;3.40;;;;;;;;;;5052025;28;20031;-90
2021/07/11 12:18:03;;;;;;;4.05;2.90;;;;;;;;;;5053326;28;20028;-91
2021/07/11 12:20:29;;;;;;;3.40;2.60;;;;;;;;;;5053413;28;20043;-90
2021/07/11 12:22:54;;;;;;;4.75;2.65;;;;;;;;;;5051956;28;20028;-90
2021/07/11 12:25:23;;;;;;;4.45;3.10;;;;;;;;;;5051859;28;20460;-89
2021/07/11 12:27:59;;;;;;;3.83;2.85;;;;;;;;;;5052251;28;20480;-90
2021/07/11 12:30:24;;;;;;;4.22;3.00;;;;;;;;;;5053149;28;20543;-90
2021/07/11 12:32:51;;;;;;;4.32;3.28;;;;;;;;;;5053181;28;20173;-90
2021/07/11 12:35:17;;;;;;;5.75;3.10;;;;;;;;;;5051897;28;20051;-90
2021/07/11 12:37:49;;;;;;;6.30;3.50;;;;;;;;;;5051768;28;20429;-89
2021/07/11 12:40:14;;;;;;;5.03;3.60;;;;;;;;;;5051504;28;20044;-90
2021/07/11 12:42:40;;;;;;;5.03;3.45;;;;;;;;;;5051778;28;20009;-89
2021/07/11 12:45:15;;;;;;;8.02;3.55;;;;;;;;;;5053123;28;20025;-90
2021/07/11 12:47:47;;;;;;;5.28;3.83;;;;;;;;;;5051785;28;20013;-90
2021/07/11 12:50:12;;;;;;;6.03;4.00;;;;;;;;;;5051631;28;20134;-88
2021/07/11 12:52:38;;;;;;;6.30;4.20;;;;;;;;;;5051652;28;20514;-90
2021/07/11 12:55:10;;;;;;;5.90;3.90;;;;;;;;;;5052615;28;20032;-90
2021/07/11 12:57:35;;;;;;;7.47;3.85;;;;;;;;;;5051647;28;20013;-90
2021/07/11 13:00:01;;;;;;;6.18;3.45;;;;;;;;;;5051737;28;20599;-91
2021/07/11 13:02:29;;;;;;;5.57;3.33;;;;;;;;;;5053189;28;20074;-90
2021/07/11 13:04:57;;;;;;;4.53;3.38;;;;;;;;;;5051512;28;20472;-90
2021/07/11 13:07:23;;;;;;;4.53;3.33;;;;;;;;;;5052631;28;20024;-90
2021/07/11 13:09:49;;;;;;;4.25;3.58;;;;;;;;;;5051303;28;20476;-90
2021/07/11 13:12:14;;;;;;;5.28;3.75;;;;;;;;;;5051906;28;20021;-90
2021/07/11 13:14:56;;;;;;;8.27;3.70;;;;;;;;;;5055927;28;20013;-90
2021/07/11 13:17:22;;;;;;;8.02;4.45;;;;;;;;;;5055380;28;20013;-90
2021/07/11 13:19:48;;;;;;;5.13;3.63;;;;;;;;;;5055493;28;20048;-89
2021/07/11 13:22:13;;;;;;;7.18;4.07;;;;;;;;;;5055464;28;20472;-90
2021/07/11 13:24:38;;;;;;;7.45;3.33;;;;;;;;;;5055352;28;20384;-90
2021/07/11 13:27:03;;;;;;;6.63;4.13;;;;;;;;;;5055472;28;20074;-90
2021/07/11 13:29:28;;;;;;;8.63;4.60;;;;;;;;;;5056670;28;20143;-90
2021/07/11 13:31:54;;;;;;;4.63;3.22;;;;;;;;;;5055290;28;20446;-90
2021/07/11 13:34:19;;;;;;;8.10;4.32;;;;;;;;;;5055240;28;20031;-90
2021/07/11 13:36:46;;;;;;;8.35;4.13;;;;;;;;;;5054951;28;20469;-91
2021/07/11 13:39:11;;;;;;;5.57;3.70;;;;;;;;;;5056571;28;20178;-90
2021/07/11 13:41:36;;;;;;;9.73;4.00;;;;;;;;;;5054883;28;20052;-90
2021/07/11 13:44:01;;;;;;;7.05;4.30;;;;;;;;;;5056244;28;20046;-90
2021/07/11 13:46:27;;;;;;;4.82;3.08;;;;;;;;;;5054932;28;20027;-90
2021/07/11 13:48:52;;;;;;;4.72;3.35;;;;;;;;;;5054815;28;20464;-90
2021/07/11 13:51:17;;;;;;;6.57;3.72;;;;;;;;;;5055077;28;20017;-90
2021/07/11 13:53:42;;;;;;;5.05;3.20;;;;;;;;;;5056139;28;20503;-90
2021/07/11 13:56:08;;;;;;;6.25;3.63;;;;;;;;;;5055692;28;20491;-90
2021/07/11 13:58:33;;;;;;;5.70;3.95;;;;;;;;;;5054697;28;20032;-90
2021/07/11 14:00:58;;;;;;;7.82;3.40;;;;;;;;;;5054498;28;20033;-90
2021/07/11 14:03:23;;;;;;;5.32;3.03;;;;;;;;;;5054575;28;20024;-90
2021/07/11 14:05:49;;;;;;;6.35;3.47;;;;;;;;;;5054643;28;20112;-89
2021/07/11 14:08:14;;;;;;;9.85;3.20;;;;;;;;;;5054430;28;20021;-90
2021/07/11 14:10:39;;;;;;;3.45;2.75;;;;;;;;;;5055731;28;20013;-90
2021/07/11 14:13:05;;;;;;;6.50;3.05;;;;;;;;;;5055680;28;20494;-90
2021/07/11 14:15:31;;;;;;;4.15;2.72;;;;;;;;;;5054452;28;20024;-90
2021/07/11 14:17:56;;;;;;;11.43;2.85;;;;;;;;;;5055607;28;20380;-89
2021/07/11 14:20:22;;;;;;;3.08;2.58;;;;;;;;;;5054606;28;20013;-90